Time;durP1;ratioP1;P1;durP2;ratioP2;P2;SDS_P1;SDS_P2;PMS_P1;PMS_P2;Temp;Humidity;BMP_temperature;BMP_pressure;BME280_temperature;BME280_humidity;BME280_pressure;Samples;Min_cycle;Max_cycle;Signal;HPM_P1;HPM_P2
2023/04/05 00:00:31;;;;;;;9.93;6.97;;;;;;;;;;5019984;28;20045;-80
2023/04/05 00:02:58;;;;;;;10.40;7.47;;;;;;;;;;5013888;28;20049;-80
2023/04/05 00:05:33;;;;;;;11.68;7.82;;;;;;;;;;5021131;28;20048;-80
2023/04/05 00:08:00;;;;;;;11.68;7.43;;;;;;;;;;5026089;28;20385;-80
2023/04/05 00:10:30;;;;;;;13.43;8.18;;;;;;;;;;5025636;28;20492;-80
2023/04/05 00:12:57;;;;;;;12.52;7.30;;;;;;;;;;5017053;28;20038;-80
2023/04/05 00:15:23;;;;;;;14.57;8.13;;;;;;;;;;5038416;28;20099;-80
2023/04/05 00:17:49;;;;;;;9.30;7.43;;;;;;;;;;5040632;28;20037;-80
2023/04/05 00:20:15;;;;;;;9.70;7.60;;;;;;;;;;5036639;28;20497;-81
2023/04/05 00:22:45;;;;;;;10.65;7.95;;;;;;;;;;5019748;28;20048;-80
2023/04/05 00:25:12;;;;;;;9.50;7.28;;;;;;;;;;5013495;28;20503;-80
2023/04/05 00:27:38;;;;;;;10.15;7.50;;;;;;;;;;5044941;28;20119;-80
2023/04/05 00:30:04;;;;;;;8.85;7.63;;;;;;;;;;5051487;28;20498;-80
2023/04/05 00:32:30;;;;;;;10.35;7.38;;;;;;;;;;5033669;28;20413;-80
2023/04/05 00:34:56;;;;;;;12.00;7.60;;;;;;;;;;5035374;28;20358;-80
2023/04/05 00:37:22;;;;;;;10.10;8.38;;;;;;;;;;5051844;28;20048;-80
2023/04/05 00:39:48;;;;;;;12.88;7.63;;;;;;;;;;5036920;28;20138;-80
2023/04/05 00:42:14;;;;;;;10.70;8.07;;;;;;;;;;5045843;28;20521;-80
2023/04/05 00:44:40;;;;;;;11.20;8.13;;;;;;;;;;5015214;28;20119;-80
2023/04/05 00:47:07;;;;;;;11.52;7.43;;;;;;;;;;5035675;28;20045;-80
2023/04/05 00:49:34;;;;;;;9.70;7.70;;;;;;;;;;5016780;28;20060;-80
2023/04/05 00:52:00;;;;;;;8.90;7.00;;;;;;;;;;5029919;28;20056;-80
2023/04/05 00:54:30;;;;;;;10.98;7.28;;;;;;;;;;5031392;28;20393;-79
2023/04/05 00:56:56;;;;;;;13.85;7.75;;;;;;;;;;5037083;28;20045;-80
2023/04/05 00:59:22;;;;;;;12.38;8.00;;;;;;;;;;5016979;28;20128;-80
2023/04/05 01:01:53;;;;;;;12.93;7.95;;;;;;;;;;5030224;28;20057;-80
2023/04/05 01:04:22;;;;;;;10.15;7.55;;;;;;;;;;5014775;28;20053;-80
2023/04/05 01:07:02;;;;;;;13.15;8.07;;;;;;;;;;5014957;28;20061;-80
2023/04/05 01:09:37;;;;;;;10.43;7.55;;;;;;;;;;5014444;28;20492;-80
2023/04/05 01:12:08;;;;;;;11.40;6.90;;;;;;;;;;5013856;28;20049;-80
2023/04/05 01:14:49;;;;;;;12.60;8.18;;;;;;;;;;5049754;28;20107;-80
2023/04/05 01:17:20;;;;;;;10.73;7.80;;;;;;;;;;5044984;28;20408;-80
2023/04/05 01:19:47;;;;;;;11.27;7.32;;;;;;;;;;5023943;28;20049;-80
2023/04/05 01:22:13;;;;;;;12.23;7.78;;;;;;;;;;5057272;28;20072;-79
2023/04/05 01:24:49;;;;;;;12.45;8.10;;;;;;;;;;5066006;28;20495;-80
2023/04/05 01:27:41;;;;;;;13.90;7.63;;;;;;;;;;5027740;28;20504;-80
2023/04/05 01:30:22;;;;;;;10.57;7.68;;;;;;;;;;5046002;28;20120;-79
2023/04/05 01:32:57;;;;;;;10.95;7.13;;;;;;;;;;5016678;28;20053;-80
2023/04/05 01:35:29;;;;;;;13.05;7.63;;;;;;;;;;5046035;28;20481;-80
2023/04/05 01:37:59;;;;;;;12.48;8.35;;;;;;;;;;5053391;28;20067;-80
2023/04/05 01:40:25;;;;;;;9.80;7.75;;;;;;;;;;5030270;28;20064;-79
2023/04/05 01:42:51;;;;;;;11.63;7.38;;;;;;;;;;5041946;28;20037;-79
2023/04/05 01:45:17;;;;;;;12.38;7.45;;;;;;;;;;5023623;28;20102;-79
2023/04/05 01:47:44;;;;;;;11.25;7.28;;;;;;;;;;5024172;28;20482;-79
2023/04/05 01:50:10;;;;;;;11.60;8.10;;;;;;;;;;5048614;28;20040;-80
2023/04/05 01:52:36;;;;;;;10.40;7.65;;;;;;;;;;5028641;28;20072;-81
2023/04/05 01:55:02;;;;;;;10.80;7.80;;;;;;;;;;5029971;28;20076;-80
2023/04/05 01:57:28;;;;;;;11.10;7.97;;;;;;;;;;5037686;28;20056;-80
2023/04/05 01:59:54;;;;;;;9.88;7.68;;;;;;;;;;5032817;28;20067;-80
2023/04/05 02:02:20;;;;;;;13.52;7.75;;;;;;;;;;5037938;28;20046;-80
2023/04/05 02:04:46;;;;;;;12.18;7.43;;;;;;;;;;5017926;28;20067;-81
2023/04/05 02:07:12;;;;;;;10.43;7.70;;;;;;;;;;5036032;28;20052;-80
2023/04/05 02:09:38;;;;;;;10.52;7.38;;;;;;;;;;5034988;28;20076;-80
2023/04/05 02:12:04;;;;;;;11.20;7.90;;;;;;;;;;5050032;28;20091;-80
2023/04/05 02:14:30;;;;;;;12.40;7.93;;;;;;;;;;5019810;28;20067;-79
2023/04/05 02:16:57;;;;;;;11.35;8.43;;;;;;;;;;5034950;28;20106;-80
2023/04/05 02:19:24;;;;;;;10.93;7.15;;;;;;;;;;5029816;28;20120;-80
2023/04/05 02:21:52;;;;;;;9.13;7.13;;;;;;;;;;5016225;28;20061;-80
2023/04/05 02:24:18;;;;;;;10.75;7.32;;;;;;;;;;5036736;28;20128;-80
2023/04/05 02:26:44;;;;;;;11.48;7.97;;;;;;;;;;5045162;28;20488;-80
2023/04/05 02:29:10;;;;;;;12.18;7.63;;;;;;;;;;5022519;28;20053;-80
2023/04/05 02:31:36;;;;;;;12.25;7.50;;;;;;;;;;5050230;28;20057;-80
2023/04/05 02:34:04;;;;;;;11.23;7.50;;;;;;;;;;5044501;28;20112;-80
2023/04/05 02:36:30;;;;;;;12.70;8.35;;;;;;;;;;5019342;28;20132;-80
2023/04/05 02:38:56;;;;;;;11.48;7.63;;;;;;;;;;5038432;28;20079;-80
2023/04/05 02:41:23;;;;;;;11.90;7.53;;;;;;;;;;5029481;28;20049;-80
2023/04/05 02:43:50;;;;;;;10.63;7.60;;;;;;;;;;5047338;28;20053;-80
2023/04/05 02:46:16;;;;;;;11.05;7.80;;;;;;;;;;5048658;28;20120;-80
2023/04/05 02:48:42;;;;;;;12.80;8.10;;;;;;;;;;5033676;28;20395;-80
2023/04/05 02:51:08;;;;;;;11.77;7.60;;;;;;;;;;5025512;28;20473;-80
2023/04/05 02:53:34;;;;;;;11.48;7.35;;;;;;;;;;5032100;28;20053;-80
2023/04/05 02:56:00;;;;;;;13.65;7.40;;;;;;;;;;5028974;28;20055;-80
2023/04/05 02:58:27;;;;;;;9.48;7.65;;;;;;;;;;5048195;28;20049;-80
2023/04/05 03:00:54;;;;;;;13.60;7.53;;;;;;;;;;5020009;28;20052;-80
2023/04/05 03:03:21;;;;;;;11.45;7.35;;;;;;;;;;5044598;28;20048;-80
2023/04/05 03:05:48;;;;;;;11.85;7.15;;;;;;;;;;5025905;28;20042;-80
2023/04/05 03:08:18;;;;;;;10.05;6.78;;;;;;;;;;5033487;28;20099;-81
2023/04/05 03:10:47;;;;;;;9.65;7.90;;;;;;;;;;5027108;28;20050;-80
2023/04/05 03:13:14;;;;;;;10.68;7.28;;;;;;;;;;5032047;28;20132;-80
2023/04/05 03:15:41;;;;;;;13.07;7.72;;;;;;;;;;5015136;28;20041;-80
2023/04/05 03:18:07;;;;;;;9.90;6.90;;;;;;;;;;5015337;28;20049;-80
2023/04/05 03:20:39;;;;;;;11.57;7.45;;;;;;;;;;5042471;28;20049;-80
2023/04/05 03:23:07;;;;;;;13.38;7.50;;;;;;;;;;5018464;28;20424;-81
2023/04/05 03:25:34;;;;;;;11.43;7.32;;;;;;;;;;5044699;28;20037;-80
2023/04/05 03:28:01;;;;;;;12.07;7.63;;;;;;;;;;5032303;28;20045;-80
2023/04/05 03:30:27;;;;;;;8.65;7.07;;;;;;;;;;5017300;28;20724;-80
2023/04/05 03:32:53;;;;;;;11.73;7.70;;;;;;;;;;5043190;28;20175;-80
2023/04/05 03:35:19;;;;;;;11.43;7.32;;;;;;;;;;5030025;28;20073;-80
2023/04/05 03:37:45;;;;;;;12.02;7.55;;;;;;;;;;5042184;28;20038;-81
2023/04/05 03:40:11;;;;;;;10.05;6.93;;;;;;;;;;5045406;28;20136;-81
2023/04/05 03:42:37;;;;;;;11.20;7.32;;;;;;;;;;5013852;28;20367;-80
2023/04/05 03:45:05;;;;;;;12.48;7.82;;;;;;;;;;5034580;28;20053;-80
2023/04/05 03:47:31;;;;;;;11.75;7.30;;;;;;;;;;5018438;28;20485;-80
2023/04/05 03:49:57;;;;;;;12.43;7.50;;;;;;;;;;5042049;28;20401;-80
2023/04/05 03:52:23;;;;;;;12.85;7.80;;;;;;;;;;5019994;28;20049;-80
2023/04/05 03:54:49;;;;;;;10.15;7.25;;;;;;;;;;5036091;28;20060;-80
2023/04/05 03:57:15;;;;;;;11.95;7.75;;;;;;;;;;5035943;28;20061;-80
2023/04/05 03:59:41;;;;;;;11.35;8.35;;;;;;;;;;5020100;28;20045;-81
2023/04/05 04:02:07;;;;;;;10.23;7.78;;;;;;;;;;5037569;28;20045;-80
2023/04/05 04:04:33;;;;;;;12.05;8.48;;;;;;;;;;5013396;28;20076;-80
2023/04/05 04:06:59;;;;;;;12.32;7.85;;;;;;;;;;5045915;28;20075;-80
2023/04/05 04:09:28;;;;;;;12.30;8.15;;;;;;;;;;5030176;28;20052;-80
2023/04/05 04:11:55;;;;;;;12.77;7.93;;;;;;;;;;5027501;28;20054;-80
2023/04/05 04:14:21;;;;;;;11.70;8.27;;;;;;;;;;5030626;28;20037;-80
2023/04/05 04:16:48;;;;;;;12.52;8.15;;;;;;;;;;5035806;28;20099;-80
2023/04/05 04:19:14;;;;;;;13.75;8.30;;;;;;;;;;5014201;28;20084;-80
2023/04/05 04:21:47;;;;;;;13.75;7.90;;;;;;;;;;5025632;28;20060;-80
2023/04/05 04:24:17;;;;;;;11.57;8.35;;;;;;;;;;5044060;28;20041;-80
2023/04/05 04:26:44;;;;;;;15.80;9.23;;;;;;;;;;5023470;28;20049;-80
2023/04/05 04:29:11;;;;;;;16.60;11.23;;;;;;;;;;5028575;28;20037;-80
2023/04/05 04:31:38;;;;;;;12.88;9.07;;;;;;;;;;5018185;28;20193;-80
2023/04/05 04:34:05;;;;;;;14.27;8.57;;;;;;;;;;5016295;28;20044;-80
2023/04/05 04:36:35;;;;;;;15.07;9.55;;;;;;;;;;5022737;28;20560;-80
2023/04/05 04:39:04;;;;;;;12.65;8.60;;;;;;;;;;5036807;28;20950;-80
2023/04/05 04:41:32;;;;;;;14.43;8.70;;;;;;;;;;5035268;28;20098;-80
2023/04/05 04:44:01;;;;;;;13.70;8.60;;;;;;;;;;5033520;28;20527;-80
2023/04/05 04:46:33;;;;;;;13.18;8.52;;;;;;;;;;5019777;28;20049;-80
2023/04/05 04:49:04;;;;;;;15.00;9.57;;;;;;;;;;5033789;28;20130;-80
2023/04/05 04:51:31;;;;;;;11.80;8.13;;;;;;;;;;5055739;28;20064;-79
2023/04/05 04:53:57;;;;;;;14.00;9.30;;;;;;;;;;5042090;28;20056;-80
2023/04/05 04:56:23;;;;;;;15.40;9.23;;;;;;;;;;5059441;28;20419;-80
2023/04/05 04:58:49;;;;;;;13.23;9.25;;;;;;;;;;5040407;28;20120;-80
2023/04/05 05:01:15;;;;;;;14.13;8.93;;;;;;;;;;5031768;28;20049;-80
2023/04/05 05:03:42;;;;;;;13.68;9.90;;;;;;;;;;5047275;28;20107;-80
2023/04/05 05:06:08;;;;;;;37.33;11.65;;;;;;;;;;5032761;28;20047;-80
2023/04/05 05:08:34;;;;;;;16.55;10.30;;;;;;;;;;5046842;28;20048;-80
2023/04/05 05:11:00;;;;;;;16.73;9.88;;;;;;;;;;5032641;28;20072;-79
2023/04/05 05:13:26;;;;;;;18.42;11.63;;;;;;;;;;5045738;28;20048;-79
2023/04/05 05:15:52;;;;;;;17.63;11.95;;;;;;;;;;5059105;28;20052;-80
2023/04/05 05:18:18;;;;;;;20.80;11.77;;;;;;;;;;5060040;28;20810;-79
2023/04/05 05:20:45;;;;;;;18.38;11.93;;;;;;;;;;5027193;28;20049;-79
2023/04/05 05:23:11;;;;;;;19.08;11.10;;;;;;;;;;5034542;28;20369;-79
2023/04/05 05:25:37;;;;;;;25.90;12.98;;;;;;;;;;5035226;28;20136;-79
2023/04/05 05:28:03;;;;;;;29.20;11.98;;;;;;;;;;5028924;28;20048;-79
2023/04/05 05:30:29;;;;;;;20.92;11.70;;;;;;;;;;5044199;28;20038;-80
2023/04/05 05:32:57;;;;;;;19.25;10.93;;;;;;;;;;5046232;28;20045;-80
2023/04/05 05:35:23;;;;;;;17.80;11.32;;;;;;;;;;5016600;28;20052;-80
2023/04/05 05:37:49;;;;;;;14.50;10.95;;;;;;;;;;5019773;28;20036;-79
2023/04/05 05:40:15;;;;;;;13.57;10.45;;;;;;;;;;5052951;28;20404;-80
2023/04/05 05:42:41;;;;;;;16.05;10.52;;;;;;;;;;5031030;28;20048;-79
2023/04/05 05:45:07;;;;;;;15.18;10.50;;;;;;;;;;5034155;28;20045;-80
2023/04/05 05:47:33;;;;;;;16.45;11.13;;;;;;;;;;5043722;28;20570;-80
2023/04/05 05:50:00;;;;;;;14.57;9.85;;;;;;;;;;5033805;28;20124;-80
2023/04/05 05:52:26;;;;;;;17.23;10.68;;;;;;;;;;5051214;28;20049;-80
2023/04/05 05:54:52;;;;;;;13.55;10.15;;;;;;;;;;5046188;28;20063;-80
2023/04/05 05:57:18;;;;;;;21.13;11.35;;;;;;;;;;5049436;28;20045;-80
2023/04/05 05:59:44;;;;;;;16.65;11.10;;;;;;;;;;5041672;28;20049;-80
2023/04/05 06:02:10;;;;;;;15.85;11.52;;;;;;;;;;5050603;28;20037;-80
2023/04/05 06:04:36;;;;;;;17.30;11.10;;;;;;;;;;5037468;28;20063;-80
2023/04/05 06:07:03;;;;;;;13.90;10.35;;;;;;;;;;5033470;28;20037;-80
2023/04/05 06:09:29;;;;;;;15.63;10.07;;;;;;;;;;5037785;28;20140;-80
2023/04/05 06:11:55;;;;;;;15.40;10.68;;;;;;;;;;5035511;28;20041;-80
2023/04/05 06:14:22;;;;;;;15.90;10.77;;;;;;;;;;5046318;28;20045;-80
2023/04/05 06:16:48;;;;;;;15.40;11.70;;;;;;;;;;5046222;28;20048;-81
2023/04/05 06:19:14;;;;;;;19.45;11.95;;;;;;;;;;5031874;28;20056;-80
2023/04/05 06:21:40;;;;;;;19.00;11.98;;;;;;;;;;5045351;28;20048;-80
2023/04/05 06:24:06;;;;;;;19.98;14.27;;;;;;;;;;5021379;28;20458;-80
2023/04/05 06:26:35;;;;;;;19.77;13.18;;;;;;;;;;5027306;28;20052;-80
2023/04/05 06:29:01;;;;;;;16.98;11.43;;;;;;;;;;5040745;28;20049;-80
2023/04/05 06:31:30;;;;;;;19.35;12.70;;;;;;;;;;5038004;28;20041;-79
2023/04/05 06:33:56;;;;;;;14.93;11.07;;;;;;;;;;5021926;28;20045;-80
2023/04/05 06:36:22;;;;;;;15.90;11.50;;;;;;;;;;5029137;28;20444;-80
2023/04/05 06:38:50;;;;;;;17.75;12.25;;;;;;;;;;5051908;28;20045;-80
2023/04/05 06:41:16;;;;;;;16.27;12.05;;;;;;;;;;5042971;28;20049;-79
2023/04/05 06:43:42;;;;;;;20.60;12.68;;;;;;;;;;5039835;28;20511;-79
2023/04/05 06:46:10;;;;;;;18.40;12.18;;;;;;;;;;5071941;28;20060;-80
2023/04/05 06:48:36;;;;;;;18.60;12.48;;;;;;;;;;5041378;28;20103;-80
2023/04/05 06:51:02;;;;;;;18.02;12.43;;;;;;;;;;5045284;28;20124;-80
2023/04/05 06:53:29;;;;;;;18.60;12.30;;;;;;;;;;5050165;28;20045;-79
2023/04/05 06:55:56;;;;;;;18.98;12.30;;;;;;;;;;5040539;28;20116;-79
2023/04/05 06:58:23;;;;;;;16.73;12.15;;;;;;;;;;5043454;28;20083;-80
2023/04/05 07:00:49;;;;;;;21.70;12.02;;;;;;;;;;5039774;28;20129;-80
2023/04/05 07:03:16;;;;;;;17.35;11.88;;;;;;;;;;5047699;28;20041;-80
2023/04/05 07:05:49;;;;;;;18.25;12.48;;;;;;;;;;5027345;28;20436;-80
2023/04/05 07:08:15;;;;;;;16.33;12.45;;;;;;;;;;5042900;28;20083;-80
2023/04/05 07:10:41;;;;;;;19.88;12.20;;;;;;;;;;5014518;28;20083;-80
2023/04/05 07:13:07;;;;;;;18.75;12.90;;;;;;;;;;5044039;28;20072;-80
2023/04/05 07:15:34;;;;;;;20.23;12.40;;;;;;;;;;5036562;28;20085;-80
2023/04/05 07:18:00;;;;;;;19.25;13.57;;;;;;;;;;5037483;28;20448;-80
2023/04/05 07:20:26;;;;;;;19.58;12.30;;;;;;;;;;5052683;28;20048;-80
2023/04/05 07:22:52;;;;;;;16.73;12.27;;;;;;;;;;5026741;28;20385;-80
2023/04/05 07:25:18;;;;;;;18.20;12.88;;;;;;;;;;5043401;28;20045;-80
2023/04/05 07:27:44;;;;;;;18.92;13.13;;;;;;;;;;5047996;28;20037;-81
2023/04/05 07:30:10;;;;;;;18.80;13.52;;;;;;;;;;5051104;28;20048;-81
2023/04/05 07:32:36;;;;;;;20.92;13.20;;;;;;;;;;5050944;28;20488;-82
2023/04/05 07:35:03;;;;;;;20.42;13.93;;;;;;;;;;5020252;28;20042;-80
2023/04/05 07:37:30;;;;;;;19.17;14.30;;;;;;;;;;5026724;28;20128;-81
2023/04/05 07:39:57;;;;;;;18.92;13.63;;;;;;;;;;5033604;28;20076;-81
2023/04/05 07:42:23;;;;;;;19.25;14.13;;;;;;;;;;5033078;28;20052;-81
2023/04/05 07:44:49;;;;;;;18.27;13.90;;;;;;;;;;5014186;28;20041;-81
2023/04/05 07:47:15;;;;;;;19.48;13.80;;;;;;;;;;5031925;28;20501;-81
2023/04/05 07:49:41;;;;;;;19.50;14.00;;;;;;;;;;5035333;28;20401;-81
2023/04/05 07:52:07;;;;;;;21.35;15.15;;;;;;;;;;5013430;28;20077;-81
2023/04/05 07:54:33;;;;;;;21.17;13.98;;;;;;;;;;5013542;28;20516;-80
2023/04/05 07:56:59;;;;;;;18.45;13.52;;;;;;;;;;4956528;28;20062;-81
2023/04/05 07:59:26;;;;;;;20.00;13.70;;;;;;;;;;5007169;28;20511;-81
2023/04/05 08:01:52;;;;;;;16.48;12.95;;;;;;;;;;5010379;28;20389;-81
2023/04/05 08:04:19;;;;;;;20.05;14.05;;;;;;;;;;5014453;28;20122;-81
2023/04/05 08:06:46;;;;;;;18.67;14.48;;;;;;;;;;5009608;28;20057;-81
2023/04/05 08:09:12;;;;;;;19.45;13.88;;;;;;;;;;5028489;28;20044;-80
2023/04/05 08:11:38;;;;;;;17.83;12.50;;;;;;;;;;5016054;28;20048;-81
2023/04/05 08:14:04;;;;;;;20.73;12.88;;;;;;;;;;5035516;28;20033;-80
2023/04/05 08:16:30;;;;;;;20.80;14.27;;;;;;;;;;5029033;28;20116;-81
2023/04/05 08:18:56;;;;;;;20.20;14.23;;;;;;;;;;5032972;28;20482;-81
2023/04/05 08:21:23;;;;;;;18.60;13.48;;;;;;;;;;5017111;28;20085;-82
2023/04/05 08:23:49;;;;;;;21.23;13.35;;;;;;;;;;5019236;28;20107;-81
2023/04/05 08:26:16;;;;;;;18.15;12.13;;;;;;;;;;5030751;28;20110;-82
2023/04/05 08:28:42;;;;;;;16.17;12.05;;;;;;;;;;5050499;28;20550;-81
2023/04/05 08:31:08;;;;;;;17.25;12.52;;;;;;;;;;5045231;28;20049;-81
2023/04/05 08:33:34;;;;;;;15.88;11.60;;;;;;;;;;5043179;28;20038;-81
2023/04/05 08:36:07;;;;;;;17.67;12.75;;;;;;;;;;5037122;28;20102;-80
2023/04/05 08:38:33;;;;;;;15.77;11.63;;;;;;;;;;5023104;28;20051;-80
2023/04/05 08:41:07;;;;;;;14.57;11.30;;;;;;;;;;5032179;28;20037;-81
2023/04/05 08:43:40;;;;;;;19.13;11.50;;;;;;;;;;5045356;28;20045;-80
2023/04/05 08:46:08;;;;;;;16.67;11.38;;;;;;;;;;5036243;28;20045;-80
2023/04/05 08:48:37;;;;;;;14.30;11.05;;;;;;;;;;5039155;28;20049;-82
2023/04/05 08:51:04;;;;;;;16.25;12.30;;;;;;;;;;5039540;28;20045;-81
2023/04/05 08:53:30;;;;;;;12.35;9.95;;;;;;;;;;5042457;28;20099;-81
2023/04/05 08:55:56;;;;;;;15.82;10.70;;;;;;;;;;5037337;28;20081;-82
2023/04/05 08:58:23;;;;;;;14.80;10.43;;;;;;;;;;5039416;28;20115;-80
2023/04/05 09:00:50;;;;;;;14.45;9.75;;;;;;;;;;5041001;28;20047;-80
2023/04/05 09:03:21;;;;;;;13.15;9.90;;;;;;;;;;5022742;28;20038;-80
2023/04/05 09:05:51;;;;;;;14.00;9.95;;;;;;;;;;5034373;28;20493;-81
2023/04/05 09:08:22;;;;;;;15.90;9.93;;;;;;;;;;5030124;28;20109;-81
2023/04/05 09:10:51;;;;;;;14.57;9.85;;;;;;;;;;5034091;28;20069;-81
2023/04/05 09:13:18;;;;;;;14.00;9.52;;;;;;;;;;5036802;28;20063;-80
2023/04/05 09:15:45;;;;;;;13.30;9.80;;;;;;;;;;5023274;28;20064;-81
2023/04/05 09:18:11;;;;;;;13.00;8.55;;;;;;;;;;5039044;28;20057;-81
2023/04/05 09:20:37;;;;;;;11.15;8.32;;;;;;;;;;5015958;28;20033;-81
2023/04/05 09:23:03;;;;;;;14.60;8.32;;;;;;;;;;5021009;28;20053;-81
2023/04/05 09:25:41;;;;;;;12.73;9.05;;;;;;;;;;5025281;28;20640;-81
2023/04/05 09:28:07;;;;;;;13.00;8.30;;;;;;;;;;5025080;28;20443;-81
2023/04/05 09:30:35;;;;;;;11.45;8.35;;;;;;;;;;5038033;28;20044;-81
2023/04/05 09:33:09;;;;;;;12.32;8.73;;;;;;;;;;5024125;28;20052;-81
2023/04/05 09:35:36;;;;;;;12.23;8.43;;;;;;;;;;5037166;28;20539;-81
2023/04/05 09:38:02;;;;;;;13.50;9.07;;;;;;;;;;5026277;28;20055;-81
2023/04/05 09:40:42;;;;;;;16.08;8.60;;;;;;;;;;5036675;28;20486;-81
2023/04/05 09:43:09;;;;;;;15.80;8.88;;;;;;;;;;5018874;28;20091;-81
2023/04/05 09:45:40;;;;;;;13.75;9.27;;;;;;;;;;5021122;28;20056;-80
2023/04/05 09:48:44;;;;;;;13.00;8.60;;;;;;;;;;5034986;28;20040;-81
2023/04/05 09:51:10;;;;;;;14.93;8.95;;;;;;;;;;5033781;28;20077;-81
2023/04/05 09:53:36;;;;;;;15.43;9.60;;;;;;;;;;5010506;28;20045;-80
2023/04/05 09:56:09;;;;;;;14.30;9.18;;;;;;;;;;5017285;28;20083;-81
2023/04/05 09:58:35;;;;;;;13.18;8.88;;;;;;;;;;5014209;28;20048;-81
2023/04/05 10:01:04;;;;;;;12.57;8.98;;;;;;;;;;5035001;28;20065;-79
2023/04/05 10:03:30;;;;;;;13.35;9.43;;;;;;;;;;5031039;28;20071;-80
2023/04/05 10:05:56;;;;;;;14.05;10.23;;;;;;;;;;5018916;28;20068;-79
2023/04/05 10:08:22;;;;;;;13.35;9.52;;;;;;;;;;5037173;28;20048;-79
2023/04/05 10:10:49;;;;;;;12.98;9.95;;;;;;;;;;5039838;28;20049;-78
2023/04/05 10:13:18;;;;;;;12.40;9.27;;;;;;;;;;5015963;28;20519;-78
2023/04/05 10:15:45;;;;;;;14.45;9.77;;;;;;;;;;5028949;28;20063;-78
2023/04/05 10:18:16;;;;;;;13.65;9.50;;;;;;;;;;5023924;28;20045;-80
2023/04/05 10:20:43;;;;;;;14.40;10.02;;;;;;;;;;5028174;28;20041;-81
2023/04/05 10:23:09;;;;;;;12.63;9.18;;;;;;;;;;5041127;28;20440;-81
2023/04/05 10:25:35;;;;;;;12.20;9.05;;;;;;;;;;5051296;28;20091;-81
2023/04/05 10:28:06;;;;;;;14.90;10.27;;;;;;;;;;5034968;28;20049;-81
2023/04/05 10:30:34;;;;;;;13.40;9.55;;;;;;;;;;5029506;28;20099;-81
2023/04/05 10:33:23;;;;;;;12.15;9.98;;;;;;;;;;5015819;28;20045;-80
2023/04/05 10:36:07;;;;;;;13.05;9.90;;;;;;;;;;5017618;28;20056;-80
2023/04/05 10:38:44;;;;;;;11.15;9.05;;;;;;;;;;5024213;28;20314;-80
2023/04/05 10:41:15;;;;;;;13.85;9.98;;;;;;;;;;5015801;28;20052;-80
2023/04/05 10:43:42;;;;;;;12.48;9.55;;;;;;;;;;5023979;28;20049;-80
2023/04/05 10:46:10;;;;;;;11.20;8.90;;;;;;;;;;5039058;28;20124;-80
2023/04/05 10:48:40;;;;;;;14.02;9.70;;;;;;;;;;5015970;28;20042;-80
2023/04/05 10:51:06;;;;;;;14.60;10.32;;;;;;;;;;5044396;28;20110;-80
2023/04/05 10:53:33;;;;;;;12.57;9.52;;;;;;;;;;5010382;28;20045;-80
2023/04/05 10:56:00;;;;;;;11.68;9.45;;;;;;;;;;5016646;28;20107;-80
2023/04/05 10:58:27;;;;;;;12.77;10.70;;;;;;;;;;5015905;28;20436;-81
2023/04/05 11:00:54;;;;;;;12.68;10.45;;;;;;;;;;5017555;28;20140;-81
2023/04/05 11:03:39;;;;;;;13.57;9.68;;;;;;;;;;5016691;28;20485;-81
2023/04/05 11:06:19;;;;;;;13.57;9.95;;;;;;;;;;5042858;28;20481;-80
2023/04/05 11:08:46;;;;;;;12.45;9.30;;;;;;;;;;5014217;28;20095;-79
2023/04/05 11:11:15;;;;;;;13.25;9.52;;;;;;;;;;5015025;28;20093;-81
2023/04/05 11:13:47;;;;;;;14.88;10.23;;;;;;;;;;5038575;28;20075;-81
2023/04/05 11:16:13;;;;;;;14.02;9.77;;;;;;;;;;5039678;28;20045;-80
2023/04/05 11:18:44;;;;;;;15.70;9.80;;;;;;;;;;5034609;28;20041;-81
2023/04/05 11:21:10;;;;;;;15.13;10.25;;;;;;;;;;5019685;28;20045;-80
2023/04/05 11:23:56;;;;;;;17.38;10.18;;;;;;;;;;5041520;28;20076;-80
2023/04/05 11:26:22;;;;;;;14.65;10.27;;;;;;;;;;5034116;28;20095;-80
2023/04/05 11:28:48;;;;;;;12.15;10.25;;;;;;;;;;5017092;28;20478;-80
2023/04/05 11:31:19;;;;;;;13.18;9.88;;;;;;;;;;5034366;28;20041;-80
2023/04/05 11:33:45;;;;;;;13.52;9.98;;;;;;;;;;5017690;28;20095;-79
2023/04/05 11:36:15;;;;;;;12.18;9.50;;;;;;;;;;5014605;28;20045;-80
2023/04/05 11:38:44;;;;;;;12.90;10.05;;;;;;;;;;5015515;28;20073;-77
2023/04/05 11:41:16;;;;;;;12.27;9.90;;;;;;;;;;5025378;28;20132;-80
2023/04/05 11:43:50;;;;;;;10.60;9.30;;;;;;;;;;5022997;28;20057;-80
2023/04/05 11:46:17;;;;;;;15.43;9.30;;;;;;;;;;5039065;28;20051;-79
2023/04/05 11:48:48;;;;;;;13.23;9.40;;;;;;;;;;5047348;28;20124;-78
2023/04/05 11:51:15;;;;;;;13.18;9.55;;;;;;;;;;5040886;28;20540;-78
2023/04/05 11:53:46;;;;;;;13.23;9.18;;;;;;;;;;5031683;28;20037;-78
2023/04/05 11:56:14;;;;;;;13.60;10.32;;;;;;;;;;5015013;28;20057;-80
2023/04/05 11:58:41;;;;;;;14.40;9.48;;;;;;;;;;5034321;28;20480;-79
2023/04/05 12:01:08;;;;;;;12.48;9.23;;;;;;;;;;5022584;28;20053;-79
2023/04/05 12:03:35;;;;;;;11.95;9.05;;;;;;;;;;5040379;28;20049;-81
2023/04/05 12:06:02;;;;;;;11.68;8.90;;;;;;;;;;5036474;28;20041;-80
2023/04/05 12:08:37;;;;;;;12.02;9.07;;;;;;;;;;5046625;28;20041;-79
2023/04/05 12:11:06;;;;;;;11.38;9.30;;;;;;;;;;5023321;28;20049;-79
2023/04/05 12:13:34;;;;;;;13.50;9.60;;;;;;;;;;5023055;28;20053;-79
2023/04/05 12:16:04;;;;;;;13.15;9.25;;;;;;;;;;5018844;28;20080;-81
2023/04/05 12:18:31;;;;;;;14.05;9.95;;;;;;;;;;5037115;28;20044;-80
2023/04/05 12:20:58;;;;;;;13.00;9.93;;;;;;;;;;5031257;28;20037;-79
2023/04/05 12:23:25;;;;;;;13.38;9.73;;;;;;;;;;5013006;28;20063;-79
2023/04/05 12:25:52;;;;;;;13.57;9.52;;;;;;;;;;5019653;28;20118;-79
2023/04/05 12:28:18;;;;;;;13.95;10.02;;;;;;;;;;5014807;28;20057;-79
2023/04/05 12:30:48;;;;;;;16.98;9.82;;;;;;;;;;5018766;28;20073;-80
2023/04/05 12:33:15;;;;;;;14.20;9.90;;;;;;;;;;5036957;28;20065;-79
2023/04/05 12:35:41;;;;;;;13.35;10.38;;;;;;;;;;5037802;28;20057;-79
2023/04/05 12:38:08;;;;;;;11.85;9.68;;;;;;;;;;5016775;28;20045;-79
2023/04/05 12:40:35;;;;;;;12.70;9.48;;;;;;;;;;5016577;28;20088;-79
2023/04/05 12:43:02;;;;;;;15.68;10.20;;;;;;;;;;5034468;28;20041;-79
2023/04/05 12:45:28;;;;;;;12.60;9.32;;;;;;;;;;5032114;28;20045;-78
2023/04/05 12:47:58;;;;;;;12.38;9.90;;;;;;;;;;5015190;28;20048;-79
2023/04/05 12:50:26;;;;;;;14.07;10.15;;;;;;;;;;5025398;28;20135;-79
2023/04/05 12:52:53;;;;;;;13.73;10.13;;;;;;;;;;5037825;28;20072;-79
2023/04/05 12:55:20;;;;;;;12.07;10.05;;;;;;;;;;5032413;28;20541;-79
2023/04/05 12:57:48;;;;;;;14.68;10.85;;;;;;;;;;5016676;28;20136;-79
2023/04/05 13:00:14;;;;;;;14.27;10.05;;;;;;;;;;5032302;28;20091;-79
2023/04/05 13:02:40;;;;;;;12.88;10.38;;;;;;;;;;5021632;28;20044;-80
2023/04/05 13:05:07;;;;;;;15.40;10.13;;;;;;;;;;5015976;28;20056;-79
2023/04/05 13:07:33;;;;;;;15.13;10.13;;;;;;;;;;5031770;28;20051;-79
2023/04/05 13:09:59;;;;;;;13.80;10.65;;;;;;;;;;5019504;28;20508;-79
2023/04/05 13:12:25;;;;;;;12.52;10.15;;;;;;;;;;5015541;28;20045;-78
2023/04/05 13:14:51;;;;;;;13.32;10.40;;;;;;;;;;5022312;28;20474;-79
2023/04/05 13:17:17;;;;;;;12.13;9.95;;;;;;;;;;5037601;28;20053;-79
2023/04/05 13:19:43;;;;;;;12.18;9.60;;;;;;;;;;5017405;28;20401;-79
2023/04/05 13:22:09;;;;;;;14.50;10.43;;;;;;;;;;5038885;28;20041;-79
2023/04/05 13:24:35;;;;;;;16.23;10.15;;;;;;;;;;5020417;28;20036;-80
2023/04/05 13:27:01;;;;;;;13.35;10.18;;;;;;;;;;5025556;28;20074;-79
2023/04/05 13:29:27;;;;;;;15.90;10.00;;;;;;;;;;5038155;28;20087;-79
2023/04/05 13:31:53;;;;;;;14.05;10.23;;;;;;;;;;5042836;28;20052;-79
2023/04/05 13:34:19;;;;;;;14.82;9.52;;;;;;;;;;5038098;28;20432;-79
2023/04/05 13:36:47;;;;;;;13.80;10.82;;;;;;;;;;5039496;28;20098;-79
2023/04/05 13:39:13;;;;;;;13.55;10.10;;;;;;;;;;5021391;28;20042;-79
2023/04/05 13:41:39;;;;;;;13.70;10.95;;;;;;;;;;5018095;28;20057;-79
2023/04/05 13:44:05;;;;;;;13.65;9.88;;;;;;;;;;5033152;28;20045;-79
2023/04/05 13:46:31;;;;;;;15.50;10.35;;;;;;;;;;5034752;28;20072;-79
2023/04/05 13:48:59;;;;;;;13.52;10.35;;;;;;;;;;5021684;28;20120;-79
2023/04/05 13:51:30;;;;;;;13.82;10.27;;;;;;;;;;5023394;28;20175;-79
2023/04/05 13:53:56;;;;;;;11.30;9.85;;;;;;;;;;5028131;28;20038;-80
2023/04/05 13:56:22;;;;;;;14.70;10.10;;;;;;;;;;5024572;28;20095;-79
2023/04/05 13:58:48;;;;;;;12.40;9.70;;;;;;;;;;5043698;28;20472;-79
2023/04/05 14:01:14;;;;;;;10.77;9.50;;;;;;;;;;5031837;28;20829;-79
2023/04/05 14:03:40;;;;;;;11.63;10.00;;;;;;;;;;5021170;28;20523;-80
2023/04/05 14:06:06;;;;;;;15.20;9.80;;;;;;;;;;5015823;28;20044;-80
2023/04/05 14:08:32;;;;;;;12.20;9.60;;;;;;;;;;5033513;28;20037;-80
2023/04/05 14:10:58;;;;;;;12.15;10.15;;;;;;;;;;5038874;28;20037;-79
2023/04/05 14:13:24;;;;;;;11.23;9.55;;;;;;;;;;5033309;28;20053;-80
2023/04/05 14:15:51;;;;;;;10.85;9.50;;;;;;;;;;5016981;28;20128;-80
2023/04/05 14:18:17;;;;;;;10.65;9.48;;;;;;;;;;5016173;28;20102;-80
2023/04/05 14:20:43;;;;;;;11.48;9.70;;;;;;;;;;5044209;28;20079;-80
2023/04/05 14:23:09;;;;;;;14.63;9.70;;;;;;;;;;5020508;28;20496;-79
2023/04/05 14:25:35;;;;;;;11.48;9.82;;;;;;;;;;5037517;28;20041;-80
2023/04/05 14:28:01;;;;;;;11.68;8.95;;;;;;;;;;5040392;28;20049;-81